Time;durP1;ratioP1;P1;durP2;ratioP2;P2;SDS_P1;SDS_P2;PMS_P1;PMS_P2;Temp;Humidity;BMP_temperature;BMP_pressure;BME280_temperature;BME280_humidity;BME280_pressure;Samples;Min_cycle;Max_cycle;Signal;HPM_P1;HPM_P2
2022/05/21 00:01:27;;;;;;;6.65;2.83;;;18.20;99.90;;;;;;4972941;28;20046;-51
2022/05/21 00:03:54;;;;;;;6.88;2.85;;;18.20;99.90;;;;;;4973402;28;20513;-52
2022/05/21 00:06:20;;;;;;;7.78;2.70;;;18.20;99.90;;;;;;4973158;28;20019;-52
2022/05/21 00:08:45;;;;;;;6.82;2.60;;;18.20;99.90;;;;;;4973354;28;20033;-52
2022/05/21 00:11:11;;;;;;;8.57;2.55;;;18.30;99.90;;;;;;4973226;28;20022;-52
2022/05/21 00:13:37;;;;;;;11.27;2.85;;;18.20;99.90;;;;;;4973350;28;20027;-52
2022/05/21 00:16:03;;;;;;;7.03;3.35;;;18.20;99.90;;;;;;4973183;28;20444;-52
2022/05/21 00:18:28;;;;;;;12.38;3.05;;;18.20;99.90;;;;;;4972951;28;20037;-52
2022/05/21 00:20:54;;;;;;;10.07;3.28;;;18.20;99.90;;;;;;4973335;28;20058;-51
2022/05/21 00:23:24;;;;;;;8.15;3.70;;;18.10;99.90;;;;;;4972993;28;20029;-52
2022/05/21 00:26:00;;;;;;;6.50;2.95;;;18.20;99.90;;;;;;4973188;28;20113;-51
2022/05/21 00:28:27;;;;;;;8.35;2.67;;;18.20;99.90;;;;;;4972732;28;20062;-52
2022/05/21 00:30:54;;;;;;;8.93;3.25;;;18.20;99.90;;;;;;4972858;28;20320;-51
2022/05/21 00:33:20;;;;;;;10.07;3.22;;;18.20;99.90;;;;;;4972414;28;20057;-52
2022/05/21 00:35:48;;;;;;;5.90;2.97;;;18.20;99.90;;;;;;4972726;28;20031;-51
2022/05/21 00:38:14;;;;;;;7.40;2.90;;;18.10;99.90;;;;;;4972268;28;20039;-52
2022/05/21 00:40:41;;;;;;;8.23;2.58;;;18.10;99.90;;;;;;4973041;28;20035;-51
2022/05/21 00:43:07;;;;;;;9.90;2.77;;;18.20;99.90;;;;;;4972650;28;20034;-52
2022/05/21 00:45:33;;;;;;;5.45;2.78;;;18.10;99.90;;;;;;4955369;28;20285;-52
2022/05/21 00:47:59;;;;;;;4.43;2.33;;;18.10;99.90;;;;;;4972313;28;20035;-50
2022/05/21 00:50:28;;;;;;;6.50;2.55;;;18.10;99.90;;;;;;4972755;28;20049;-51
2022/05/21 00:52:54;;;;;;;6.63;2.50;;;18.10;99.90;;;;;;4972629;28;20055;-52
2022/05/21 00:55:29;;;;;;;5.70;2.72;;;18.10;99.90;;;;;;4972258;28;20113;-52
2022/05/21 01:00:42;;;;;;;3.33;1.73;;;18.00;99.90;;;;;;4971940;28;20086;-51
2022/05/21 01:03:10;;;;;;;5.05;2.72;;;18.10;99.90;;;;;;4972177;28;20038;-51
2022/05/21 01:05:37;;;;;;;8.05;2.70;;;18.10;99.90;;;;;;4972528;28;20029;-52
2022/05/21 01:08:04;;;;;;;5.68;2.95;;;18.10;99.90;;;;;;4972136;28;20085;-51
2022/05/21 01:10:41;;;;;;;5.70;2.60;;;18.10;99.90;;;;;;4972673;28;20386;-51
2022/05/21 01:13:13;;;;;;;6.13;3.05;;;18.00;99.90;;;;;;4972659;28;20031;-52
2022/05/21 01:15:41;;;;;;;5.57;2.50;;;18.00;99.90;;;;;;4972027;28;20039;-52
2022/05/21 01:18:08;;;;;;;8.18;3.05;;;18.00;99.90;;;;;;4972016;28;20110;-51
2022/05/21 01:20:44;;;;;;;7.43;2.40;;;18.00;99.90;;;;;;4972179;28;20027;-51
2022/05/21 01:23:11;;;;;;;10.27;3.50;;;18.00;99.90;;;;;;4971762;28;20081;-51
2022/05/21 01:25:39;;;;;;;6.90;2.72;;;18.00;99.90;;;;;;4972057;28;20463;-51
2022/05/21 01:28:08;;;;;;;9.73;2.95;;;18.00;99.90;;;;;;4971809;28;20031;-52
2022/05/21 01:30:41;;;;;;;5.28;2.70;;;18.00;99.90;;;;;;4972197;28;20038;-52
2022/05/21 01:33:10;;;;;;;9.00;3.40;;;18.00;99.90;;;;;;4971633;28;20015;-51
2022/05/21 01:35:36;;;;;;;5.80;2.92;;;18.00;99.90;;;;;;4972041;28;20039;-51
2022/05/21 01:38:02;;;;;;;9.13;3.03;;;18.00;99.90;;;;;;4971140;28;20069;-51
2022/05/21 01:40:29;;;;;;;7.15;2.78;;;18.00;99.90;;;;;;4954450;28;20081;-51
2022/05/21 01:45:39;;;;;;;8.85;3.58;;;18.00;99.90;;;;;;4971825;28;20264;-52
2022/05/21 01:48:05;;;;;;;9.38;3.95;;;18.00;99.90;;;;;;4971615;28;20038;-51
2022/05/21 01:50:31;;;;;;;8.32;3.38;;;17.90;99.90;;;;;;4971600;28;20122;-52
2022/05/21 01:52:57;;;;;;;10.38;3.90;;;17.90;99.90;;;;;;4971488;28;20027;-52
2022/05/21 01:55:23;;;;;;;12.20;3.92;;;17.90;99.90;;;;;;4971387;28;20039;-51
2022/05/21 01:57:50;;;;;;;7.53;3.55;;;17.90;99.90;;;;;;4971264;28;20041;-51
2022/05/21 02:00:17;;;;;;;10.30;4.03;;;17.80;99.90;;;;;;4971501;28;20023;-51
2022/05/21 02:02:43;;;;;;;14.60;4.15;;;17.80;99.90;;;;;;4970954;28;20042;-52
2022/05/21 02:05:09;;;;;;;9.10;3.70;;;17.80;99.90;;;;;;4971079;28;20037;-51
2022/05/21 02:07:35;;;;;;;9.40;3.60;;;17.90;99.90;;;;;;4971307;28;20027;-51
2022/05/21 02:10:01;;;;;;;9.45;3.55;;;17.90;99.90;;;;;;4971511;28;20438;-51
2022/05/21 02:12:27;;;;;;;7.95;3.42;;;17.90;99.90;;;;;;4971388;28;20030;-52
2022/05/21 02:14:55;;;;;;;10.20;3.22;;;18.00;99.90;;;;;;4970883;28;20108;-51
2022/05/21 02:17:21;;;;;;;7.93;3.10;;;18.00;99.90;;;;;;4970586;28;20034;-51
2022/05/21 02:19:47;;;;;;;14.50;4.80;;;18.00;99.90;;;;;;4971435;28;20078;-51
2022/05/21 02:22:14;;;;;;;10.93;3.75;;;18.00;99.90;;;;;;4970738;28;20046;-51
2022/05/21 02:24:40;;;;;;;11.48;3.22;;;18.00;99.90;;;;;;4971029;28;20039;-51
2022/05/21 02:27:13;;;;;;;7.22;3.13;;;18.00;99.90;;;;;;4953591;28;20031;-52
2022/05/21 02:29:39;;;;;;;7.72;4.03;;;18.00;99.90;;;;;;4970880;28;20034;-52
2022/05/21 02:32:05;;;;;;;8.68;3.17;;;18.00;99.90;;;;;;4970808;28;20110;-52
2022/05/21 02:34:31;;;;;;;6.57;3.17;;;17.90;99.90;;;;;;4970857;28;20071;-52
2022/05/21 02:39:41;;;;;;;10.30;3.22;;;18.00;99.90;;;;;;4951983;29;20112;-52
2022/05/21 02:44:52;;;;;;;5.57;3.17;;;18.00;99.90;;;;;;4951815;29;20434;-52
2022/05/21 02:47:18;;;;;;;8.27;3.38;;;18.00;99.90;;;;;;4951549;29;20027;-51
2022/05/21 02:49:43;;;;;;;7.97;3.00;;;18.00;99.90;;;;;;4951342;29;20027;-51
2022/05/21 02:52:09;;;;;;;8.38;2.63;;;18.00;99.90;;;;;;4951968;29;20403;-51
2022/05/21 02:54:35;;;;;;;7.03;2.83;;;18.00;99.90;;;;;;4951100;29;20107;-51
2022/05/21 02:57:00;;;;;;;5.93;3.67;;;18.10;99.90;;;;;;4951524;29;20035;-50
2022/05/21 02:59:29;;;;;;;7.45;3.65;;;18.00;99.90;;;;;;4951342;29;20034;-52
2022/05/21 03:01:54;;;;;;;6.93;2.60;;;17.90;99.90;;;;;;4951233;29;20047;-51
2022/05/21 03:04:20;;;;;;;10.63;3.08;;;18.00;99.90;;;;;;4951050;29;20039;-52
2022/05/21 03:06:46;;;;;;;8.27;3.55;;;18.00;99.90;;;;;;4934537;29;20034;-51
2022/05/21 03:11:56;;;;;;;8.75;3.22;;;18.00;99.90;;;;;;4951645;29;20074;-52
2022/05/21 03:14:22;;;;;;;9.63;2.47;;;17.90;99.90;;;;;;4951616;29;20051;-52
2022/05/21 03:16:47;;;;;;;8.32;3.35;;;17.90;99.90;;;;;;4951545;29;20463;-53
2022/05/21 03:19:13;;;;;;;8.10;3.58;;;17.90;99.90;;;;;;4951061;29;20034;-52
2022/05/21 03:21:39;;;;;;;6.72;2.95;;;17.90;99.90;;;;;;4951056;29;20267;-51
2022/05/21 03:24:05;;;;;;;7.40;2.83;;;17.90;99.90;;;;;;4951223;29;20030;-51
2022/05/21 03:26:31;;;;;;;7.43;2.90;;;17.90;99.90;;;;;;4951381;29;20499;-52
2022/05/21 03:28:57;;;;;;;6.07;2.88;;;17.90;99.90;;;;;;4952129;28;20074;-52
2022/05/21 03:31:23;;;;;;;11.93;3.65;;;17.90;99.90;;;;;;4954696;29;20023;-52
2022/05/21 03:33:49;;;;;;;10.07;3.72;;;17.90;99.90;;;;;;4954628;29;20053;-51
2022/05/21 03:36:15;;;;;;;10.95;3.55;;;18.00;99.90;;;;;;4954514;29;20526;-51
2022/05/21 03:38:40;;;;;;;11.13;3.00;;;18.00;99.90;;;;;;4967756;28;20077;-51
2022/05/21 03:41:06;;;;;;;12.25;4.10;;;18.00;99.90;;;;;;4973862;28;20109;-52
2022/05/21 03:43:32;;;;;;;12.90;4.00;;;18.00;99.90;;;;;;4973768;28;20031;-52
2022/05/21 03:45:59;;;;;;;6.85;3.47;;;18.10;99.90;;;;;;4973986;28;20031;-52
2022/05/21 03:48:25;;;;;;;8.05;3.85;;;18.10;99.90;;;;;;4973679;28;20027;-52
2022/05/21 03:50:50;;;;;;;10.32;3.70;;;18.10;99.90;;;;;;4973530;28;20196;-51
2022/05/21 03:53:16;;;;;;;10.93;3.40;;;18.10;99.90;;;;;;4973549;28;20119;-51
2022/05/21 03:55:44;;;;;;;9.48;4.40;;;18.20;99.90;;;;;;4973675;28;20019;-53
2022/05/21 03:58:10;;;;;;;8.07;3.20;;;18.20;99.90;;;;;;4973407;28;20093;-52
2022/05/21 04:00:38;;;;;;;11.18;4.20;;;18.20;99.90;;;;;;4973662;28;20035;-52
2022/05/21 04:03:04;;;;;;;6.30;3.28;;;18.20;99.90;;;;;;4973023;28;20174;-53
2022/05/21 04:05:30;;;;;;;9.77;3.50;;;18.30;99.90;;;;;;4973368;28;20034;-53
2022/05/21 04:07:56;;;;;;;14.18;3.80;;;18.30;99.90;;;;;;4973224;28;20387;-52
2022/05/21 04:10:21;;;;;;;10.73;3.85;;;18.40;99.90;;;;;;4973678;28;20141;-52
2022/05/21 04:12:47;;;;;;;11.18;3.58;;;18.40;99.90;;;;;;4973381;28;20364;-50
2022/05/21 04:15:13;;;;;;;8.90;3.55;;;18.40;99.90;;;;;;4973082;28;20027;-51
2022/05/21 04:17:40;;;;;;;7.32;2.97;;;18.40;99.90;;;;;;4973136;28;20102;-52
2022/05/21 04:20:08;;;;;;;9.60;3.58;;;18.50;99.90;;;;;;4973209;28;20027;-52
2022/05/21 04:22:34;;;;;;;10.25;3.40;;;18.40;99.90;;;;;;4972933;28;20078;-52
2022/05/21 04:25:00;;;;;;;9.02;3.28;;;18.40;99.90;;;;;;4973013;28;20027;-52
2022/05/21 04:27:26;;;;;;;9.18;3.47;;;18.40;99.90;;;;;;4973257;28;20026;-51
2022/05/21 04:29:52;;;;;;;10.20;3.92;;;18.40;99.90;;;;;;4972976;28;20534;-50
2022/05/21 04:32:19;;;;;;;14.30;3.67;;;18.30;99.90;;;;;;4972921;28;20438;-51
2022/05/21 04:34:45;;;;;;;10.60;4.30;;;18.30;99.90;;;;;;4972652;28;20505;-51
2022/05/21 04:37:12;;;;;;;8.25;3.60;;;18.20;99.90;;;;;;4972422;28;20487;-51
2022/05/21 04:39:37;;;;;;;8.30;3.45;;;18.20;99.90;;;;;;4972669;28;20066;-51
2022/05/21 04:42:03;;;;;;;10.25;3.38;;;18.10;99.90;;;;;;4972683;28;20050;-52
2022/05/21 04:44:34;;;;;;;8.38;3.50;;;17.90;99.90;;;;;;4972543;28;20115;-52
2022/05/21 04:47:00;;;;;;;17.27;4.47;;;17.70;99.90;;;;;;4972622;28;20034;-52
2022/05/21 04:49:26;;;;;;;12.15;3.72;;;17.50;99.90;;;;;;4972631;28;20022;-52
2022/05/21 04:51:52;;;;;;;15.77;4.47;;;17.50;99.90;;;;;;4972443;28;20089;-52
2022/05/21 04:54:17;;;;;;;11.27;4.07;;;17.50;99.90;;;;;;4972290;28;20062;-51
2022/05/21 04:56:43;;;;;;;7.43;3.47;;;17.40;99.90;;;;;;4972622;28;20030;-52
2022/05/21 04:59:10;;;;;;;10.98;4.20;;;17.30;99.90;;;;;;4972178;28;20031;-51
2022/05/21 05:01:38;;;;;;;12.20;4.72;;;17.30;99.90;;;;;;4972235;28;20534;-52
2022/05/21 05:04:04;;;;;;;8.75;4.65;;;17.30;99.90;;;;;;4972286;28;20038;-51
2022/05/21 05:06:31;;;;;;;12.07;4.37;;;17.30;99.90;;;;;;4972591;28;20118;-50
2022/05/21 05:08:57;;;;;;;13.77;5.70;;;17.30;99.90;;;;;;4972532;28;20382;-51
2022/05/21 05:11:23;;;;;;;10.70;4.85;;;17.40;99.90;;;;;;4972514;28;20467;-51
2022/05/21 05:13:49;;;;;;;14.57;4.57;;;17.40;99.90;;;;;;4972129;28;20427;-52
2022/05/21 05:16:15;;;;;;;10.88;4.80;;;17.40;99.90;;;;;;4972183;28;20554;-52
2022/05/21 05:18:41;;;;;;;13.25;4.95;;;17.40;99.90;;;;;;4971881;28;20109;-52
2022/05/21 05:21:06;;;;;;;10.00;5.25;;;17.40;99.90;;;;;;4971813;28;20022;-52
2022/05/21 05:23:32;;;;;;;13.23;5.18;;;17.50;99.90;;;;;;4971824;28;20047;-52
2022/05/21 05:25:59;;;;;;;13.93;5.13;;;17.50;99.90;;;;;;4972120;28;20391;-51
2022/05/21 05:28:26;;;;;;;16.13;5.90;;;17.70;99.90;;;;;;4973049;28;20041;-52
2022/05/21 05:30:52;;;;;;;11.68;5.55;;;17.80;99.90;;;;;;4972426;28;20055;-51
2022/05/21 05:33:19;;;;;;;10.30;5.47;;;17.90;99.90;;;;;;4971510;28;20684;-51
2022/05/21 05:35:48;;;;;;;11.32;5.13;;;18.10;99.90;;;;;;4971652;28;20387;-51
2022/05/21 05:38:15;;;;;;;9.18;5.28;;;18.30;99.90;;;;;;4971303;28;20399;-52
2022/05/21 05:40:46;;;;;;;12.00;4.90;;;18.40;99.90;;;;;;4971469;28;20043;-52
2022/05/21 05:43:14;;;;;;;7.88;4.15;;;18.50;99.90;;;;;;4971282;28;20034;-52
2022/05/21 05:45:39;;;;;;;8.25;4.32;;;18.70;99.90;;;;;;4971477;28;20104;-52
2022/05/21 05:48:05;;;;;;;7.88;3.53;;;18.80;99.90;;;;;;4971565;28;20420;-52
2022/05/21 05:50:31;;;;;;;8.63;3.35;;;18.90;99.90;;;;;;4970960;28;20498;-52
2022/05/21 05:53:01;;;;;;;8.10;4.05;;;18.90;99.90;;;;;;4970653;28;20039;-51
2022/05/21 05:55:27;;;;;;;7.28;3.80;;;18.90;99.90;;;;;;4971639;28;20027;-52
2022/05/21 05:57:53;;;;;;;7.75;3.22;;;18.90;99.90;;;;;;4971192;28;20027;-53
2022/05/21 06:00:20;;;;;;;9.05;4.13;;;19.00;99.90;;;;;;4969858;28;20419;-51
2022/05/21 06:02:58;;;;;;;12.27;4.22;;;19.00;99.90;;;;;;4969707;28;20050;-52
2022/05/21 06:05:26;;;;;;;4.38;2.67;;;19.10;99.90;;;;;;4970132;28;20030;-52
2022/05/21 06:08:01;;;;;;;6.97;2.45;;;18.80;99.90;;;;;;4969873;28;20054;-51
2022/05/21 06:10:37;;;;;;;7.40;2.38;;;18.50;99.90;;;;;;4970167;28;20497;-52
2022/05/21 06:13:04;;;;;;;8.20;2.30;;;18.50;99.90;;;;;;4970054;28;20045;-53
2022/05/21 06:15:31;;;;;;;6.45;2.22;;;18.30;99.90;;;;;;4969842;28;20037;-52
2022/05/21 06:17:57;;;;;;;5.15;2.20;;;18.20;99.90;;;;;;4969719;28;20035;-51
2022/05/21 06:20:25;;;;;;;4.53;2.30;;;18.10;99.90;;;;;;4969745;28;20053;-52
2022/05/21 06:22:51;;;;;;;6.22;2.55;;;18.20;99.90;;;;;;4969836;28;20038;-52
2022/05/21 06:25:21;;;;;;;9.30;2.30;;;18.20;99.90;;;;;;4970353;28;20026;-51
2022/05/21 06:27:50;;;;;;;7.15;1.92;;;18.10;99.90;;;;;;4969948;28;20131;-52
2022/05/21 06:30:17;;;;;;;5.88;2.13;;;18.10;99.90;;;;;;4970410;28;20062;-51
2022/05/21 06:32:42;;;;;;;3.03;2.20;;;18.00;99.90;;;;;;4970245;28;20035;-52
2022/05/21 06:35:09;;;;;;;5.63;2.30;;;18.10;99.90;;;;;;4970176;28;20710;-52
2022/05/21 06:37:35;;;;;;;20.48;3.25;;;18.20;99.90;;;;;;4970270;28;20034;-52
2022/05/21 06:40:02;;;;;;;7.82;1.58;;;18.30;99.90;;;;;;4969518;28;20038;-51
2022/05/21 06:42:27;;;;;;;4.53;1.45;;;18.20;99.90;;;;;;4970210;28;20035;-52
2022/05/21 06:44:53;;;;;;;3.70;1.40;;;18.20;99.90;;;;;;4970383;28;20600;-53
2022/05/21 06:47:19;;;;;;;5.32;1.42;;;18.10;99.90;;;;;;4969323;28;20031;-52
2022/05/21 06:49:45;;;;;;;1.10;0.87;;;18.20;99.90;;;;;;4970191;28;20348;-51
2022/05/21 06:52:11;;;;;;;3.60;0.70;;;18.30;99.90;;;;;;4970221;28;20093;-52
2022/05/21 06:54:36;;;;;;;7.78;1.65;;;18.30;99.90;;;;;;4969683;28;20035;-52
2022/05/21 06:57:08;;;;;;;7.22;0.60;;;18.40;99.90;;;;;;4966998;28;20394;-51
2022/05/21 06:59:34;;;;;;;4.22;0.70;;;18.30;99.90;;;;;;4969555;28;20057;-51
2022/05/21 07:02:00;;;;;;;2.10;0.73;;;18.30;99.90;;;;;;4969203;28;20050;-51
2022/05/21 07:10:23;;;;;;;5.00;0.90;;;18.30;99.90;;;;;;4895021;29;20185;-51
2022/05/21 07:12:49;;;;;;;0.73;0.30;;;18.30;99.90;;;;;;4892997;29;20454;-52
2022/05/21 07:15:16;;;;;;;20.40;0.88;;;18.30;99.90;;;;;;4922752;29;20091;-52
2022/05/21 07:17:43;;;;;;;7.03;0.70;;;18.30;99.90;;;;;;4951812;28;20040;-51
2022/05/21 07:20:13;;;;;;;7.38;0.70;;;18.40;99.90;;;;;;4952780;29;20049;-52
2022/05/21 07:22:44;;;;;;;5.13;0.60;;;18.40;99.90;;;;;;4964110;28;20046;-52
2022/05/21 07:25:16;;;;;;;4.60;0.80;;;18.40;99.90;;;;;;4974176;28;20188;-51
2022/05/21 07:27:42;;;;;;;5.35;0.65;;;18.40;99.90;;;;;;4973530;28;20062;-51
2022/05/21 07:30:08;;;;;;;6.13;0.80;;;18.40;99.90;;;;;;4974151;28;20058;-52
2022/05/21 07:32:34;;;;;;;8.33;0.83;;;18.50;99.90;;;;;;4974073;28;20090;-52
2022/05/21 07:35:15;;;;;;;5.15;0.57;;;18.70;99.90;;;;;;4973636;28;20082;-52
2022/05/21 07:37:41;;;;;;;3.92;0.63;;;18.80;99.90;;;;;;4974323;28;20497;-51
2022/05/21 07:40:09;;;;;;;2.63;0.45;;;18.80;99.90;;;;;;4974532;28;20038;-51
2022/05/21 07:42:36;;;;;;;5.13;0.57;;;18.90;99.90;;;;;;4974079;28;20077;-52
2022/05/21 07:45:03;;;;;;;7.28;1.73;;;18.80;98.10;;;;;;4973610;28;20407;-51
2022/05/21 07:47:28;;;;;;;6.47;0.63;;;18.50;95.30;;;;;;4973295;28;20447;-51
2022/05/21 07:49:56;;;;;;;12.18;1.00;;;18.50;95.80;;;;;;4973704;28;20038;-51
2022/05/21 07:52:22;;;;;;;;;;;18.50;96.30;;;;;;4974474;28;20109;-52
2022/05/21 07:54:47;;;;;;;3.72;0.47;;;18.50;97.00;;;;;;4973826;28;19906;-51
2022/05/21 07:57:14;;;;;;;7.55;0.65;;;18.60;94.80;;;;;;4974081;28;20034;-51
2022/05/21 07:59:39;;;;;;;1.77;0.40;;;18.50;95.00;;;;;;4974994;28;20456;-52
2022/05/21 08:02:11;;;;;;;3.83;0.50;;;18.60;96.30;;;;;;4974747;28;20511;-50
2022/05/21 08:04:38;;;;;;;5.63;0.65;;;18.70;97.20;;;;;;4974703;28;20027;-51
2022/05/21 08:07:03;;;;;;;6.07;0.35;;;18.90;97.30;;;;;;4975020;28;20034;-52
2022/05/21 08:09:29;;;;;;;8.60;1.65;;;19.00;96.00;;;;;;4974757;28;20046;-52
2022/05/21 08:11:55;;;;;;;7.10;0.55;;;19.00;97.00;;;;;;4975237;28;20379;-52
2022/05/21 08:14:21;;;;;;;4.30;0.85;;;18.90;95.50;;;;;;4974260;28;20027;-52
2022/05/21 08:16:48;;;;;;;6.38;0.45;;;18.90;96.90;;;;;;4974870;28;20126;-53
2022/05/21 08:19:14;;;;;;;4.90;0.55;;;18.90;97.00;;;;;;4974554;28;20070;-51
2022/05/21 08:21:40;;;;;;;3.20;0.50;;;18.90;97.10;;;;;;4974559;28;20065;-51
2022/05/21 08:26:57;;;;;;;1.77;0.52;;;19.00;97.40;;;;;;4974660;28;20085;-52
2022/05/21 08:29:28;;;;;;;8.18;0.85;;;19.10;97.20;;;;;;4974361;28;20031;-50
2022/05/21 08:31:54;;;;;;;2.70;0.60;;;19.20;96.80;;;;;;4974537;28;20027;-52
2022/05/21 08:34:24;;;;;;;8.70;1.23;;;19.20;97.80;;;;;;4974226;28;20153;-51
2022/05/21 08:36:50;;;;;;;3.03;0.52;;;19.50;98.90;;;;;;4974263;28;20038;-52
2022/05/21 08:39:17;;;;;;;4.95;0.50;;;19.50;96.30;;;;;;4974029;28;20515;-52
2022/05/21 08:41:49;;;;;;;5.10;0.57;;;19.50;96.90;;;;;;4973916;28;20042;-51
2022/05/21 08:44:22;;;;;;;2.50;0.30;;;19.60;97.00;;;;;;4974432;28;20033;-51
2022/05/21 08:47:06;;;;;;;4.30;1.00;;;19.60;96.30;;;;;;4955124;29;20125;-51
2022/05/21 08:49:59;;;;;;;2.10;0.70;;;19.70;96.90;;;;;;4954766;29;20471;-51
2022/05/21 08:52:28;;;;;;;11.50;1.48;;;19.80;98.70;;;;;;4937539;29;20476;-52
2022/05/21 08:54:57;;;;;;;5.85;0.63;;;19.80;96.60;;;;;;4954766;29;20062;-52
2022/05/21 08:57:49;;;;;;;4.55;0.80;;;19.90;94.30;;;;;;4959169;28;20089;-53
2022/05/21 09:00:31;;;;;;;5.47;0.63;;;19.90;93.70;;;;;;4963694;28;20035;-52
2022/05/21 09:02:57;;;;;;;6.50;0.70;;;19.90;94.40;;;;;;4973596;28;20053;-50
2022/05/21 09:05:25;;;;;;;2.30;0.65;;;20.10;94.50;;;;;;4973990;28;20026;-53
2022/05/21 09:08:13;;;;;;;2.72;0.88;;;20.20;92.50;;;;;;4973268;28;20042;-52
2022/05/21 09:11:03;;;;;;;3.50;0.90;;;20.20;94.50;;;;;;4973997;28;20030;-51
2022/05/21 09:13:44;;;;;;;5.07;0.95;;;20.40;93.40;;;;;;4973472;28;20432;-51
2022/05/21 09:17:00;;;;;;;2.97;0.95;;;20.30;94.30;;;;;;4973599;28;20033;-52
2022/05/21 09:19:06;;;;;;;4.00;0.88;;;20.30;92.90;;;;;;4960344;28;20394;-51
2022/05/21 09:21:36;;;;;;;1.85;0.63;;;20.70;95.80;;;;;;4973221;28;20026;-53
2022/05/21 09:24:04;;;;;;;1.90;0.70;;;20.80;93.20;;;;;;4973378;28;20035;-51
2022/05/21 09:26:42;;;;;;;4.68;0.60;;;20.70;91.30;;;;;;4972593;28;20031;-51
2022/05/21 09:29:13;;;;;;;;;;;20.70;92.10;;;;;;4973742;28;20034;-51
2022/05/21 09:31:38;;;;;;;2.45;0.52;;;20.70;91.70;;;;;;4973621;28;19913;-51
2022/05/21 09:34:22;;;;;;;1.55;0.88;;;21.00;92.40;;;;;;4973241;28;20023;-51
2022/05/21 09:36:48;;;;;;;1.70;0.35;;;21.30;92.30;;;;;;4973122;28;20101;-53
2022/05/21 09:39:30;;;;;;;2.55;0.60;;;21.30;90.40;;;;;;4972952;28;20443;-52
2022/05/21 09:42:08;;;;;;;1.80;0.50;;;20.90;90.90;;;;;;4973402;28;20071;-52
2022/05/21 09:47:24;;;;;;;0.43;0.35;;;20.90;88.50;;;;;;4973372;28;20037;-51
2022/05/21 09:50:06;;;;;;;5.70;0.82;;;20.80;88.40;;;;;;4973249;28;20080;-52
2022/05/21 09:52:34;;;;;;;6.50;0.60;;;20.80;89.80;;;;;;4972881;28;20031;-52
2022/05/21 09:55:01;;;;;;;5.73;0.60;;;20.90;88.60;;;;;;4973172;28;20027;-52
2022/05/21 09:57:33;;;;;;;;;;;21.10;87.80;;;;;;4973892;28;20385;-52
2022/05/21 10:00:15;;;;;;;5.75;0.40;;;21.10;84.90;;;;;;4972970;28;19913;-51
2022/05/21 10:02:43;;;;;;;3.20;0.40;;;21.20;84.00;;;;;;4972542;28;20085;-52
2022/05/21 10:05:15;;;;;;;2.80;0.40;;;21.30;85.60;;;;;;4972756;28;20579;-51
2022/05/21 10:11:00;;;;;;;3.95;0.55;;;21.90;86.50;;;;;;4973175;28;20077;-52
2022/05/21 10:13:49;;;;;;;1.75;0.60;;;22.00;82.80;;;;;;4972804;28;20030;-51
2022/05/21 10:16:28;;;;;;;4.03;0.65;;;22.00;81.60;;;;;;4972650;28;20435;-51
2022/05/21 10:19:25;;;;;;;3.72;0.60;;;22.00;83.20;;;;;;4972698;28;20051;-51
2022/05/21 10:22:21;;;;;;;3.80;0.50;;;21.70;83.30;;;;;;4972473;28;20513;-52
2022/05/21 10:24:52;;;;;;;1.30;0.60;;;21.80;83.00;;;;;;4972622;28;20240;-51
2022/05/21 10:27:56;;;;;;;3.65;0.65;;;21.80;83.30;;;;;;4972674;28;20023;-51
2022/05/21 10:30:25;;;;;;;2.20;0.50;;;22.10;84.50;;;;;;4972591;28;20022;-51
2022/05/21 10:33:01;;;;;;;0.55;0.40;;;22.30;81.70;;;;;;4972200;28;20483;-51
2022/05/21 10:35:59;;;;;;;6.82;2.55;;;22.40;80.00;;;;;;4972355;28;20523;-51
2022/05/21 10:38:56;;;;;;;1.80;0.77;;;22.30;80.50;;;;;;4888431;28;20040;-52
2022/05/21 10:41:37;;;;;;;1.75;0.45;;;22.70;84.20;;;;;;4976329;28;20557;-53
2022/05/21 10:44:29;;;;;;;4.50;0.50;;;23.00;78.30;;;;;;4976699;28;20081;-53
2022/05/21 10:47:50;;;;;;;3.03;0.50;;;22.90;75.80;;;;;;4971902;28;20042;-51
2022/05/21 10:50:25;;;;;;;1.23;0.60;;;22.80;73.60;;;;;;4933094;28;20062;-51
2022/05/21 10:53:20;;;;;;;2.78;0.70;;;22.50;75.80;;;;;;4976155;28;20031;-53
2022/05/21 10:56:02;;;;;;;1.90;0.50;;;22.40;76.60;;;;;;4976396;28;20061;-52
2022/05/21 10:58:30;;;;;;;2.97;0.90;;;22.50;77.70;;;;;;4976065;28;20023;-52
2022/05/21 11:01:05;;;;;;;4.65;0.60;;;22.60;78.40;;;;;;4976403;28;20030;-52
2022/05/21 11:04:09;;;;;;;3.08;0.73;;;22.60;77.20;;;;;;4975880;28;20390;-53
2022/05/21 11:06:53;;;;;;;4.95;0.50;;;22.80;80.30;;;;;;4976052;28;20471;-52
2022/05/21 11:09:46;;;;;;;4.38;1.13;;;23.00;76.00;;;;;;4975762;28;20081;-51
2022/05/21 11:12:22;;;;;;;3.70;0.85;;;22.70;74.80;;;;;;4976151;28;20467;-52
2022/05/21 11:14:58;;;;;;;2.28;0.80;;;22.50;75.10;;;;;;4975662;28;20079;-52
2022/05/21 11:17:55;;;;;;;2.28;0.75;;;22.70;76.20;;;;;;4975816;28;20031;-52
2022/05/21 11:20:30;;;;;;;3.97;0.90;;;23.10;75.80;;;;;;4942431;28;20039;-52
2022/05/21 11:23:10;;;;;;;5.78;0.90;;;23.20;74.60;;;;;;4975750;28;20066;-50
2022/05/21 11:25:46;;;;;;;4.35;1.05;;;22.80;74.50;;;;;;4975831;28;20042;-51
2022/05/21 11:28:37;;;;;;;4.80;0.85;;;22.60;74.70;;;;;;4975411;28;20382;-53
2022/05/21 11:31:15;;;;;;;4.97;1.00;;;22.70;76.30;;;;;;4975830;28;20110;-51
2022/05/21 11:39:18;;;;;;;2.15;0.80;;;23.40;76.50;;;;;;4975687;28;20074;-53
2022/05/21 11:42:07;;;;;;;4.20;0.85;;;23.70;74.40;;;;;;4975498;28;20146;-52
2022/05/21 11:44:58;;;;;;;2.10;0.70;;;23.70;73.20;;;;;;4975328;28;20033;-51
2022/05/21 11:47:26;;;;;;;2.53;0.70;;;23.30;73.00;;;;;;4975526;28;20025;-53
2022/05/21 11:50:07;;;;;;;7.22;0.75;;;22.70;71.40;;;;;;4974229;28;20023;-53
2022/05/21 11:52:49;;;;;;;6.10;1.77;;;22.60;71.60;;;;;;4974900;28;20033;-51
2022/05/21 11:55:27;;;;;;;2.72;0.75;;;22.80;73.80;;;;;;4975413;28;20033;-52
2022/05/21 11:57:59;;;;;;;10.90;0.80;;;22.80;72.00;;;;;;4973551;23;20142;-84
2022/05/21 12:00:24;;;;;;;9.02;1.00;;;22.90;73.60;;;;;;4958607;29;20031;-83
2022/05/21 12:02:53;;;;;;;8.75;1.48;;;23.10;71.90;;;;;;4939841;29;20038;-83
2022/05/21 12:05:34;;;;;;;4.28;1.65;;;23.20;71.90;;;;;;4940517;29;20034;-79
2022/05/21 12:08:18;;;;;;;5.15;0.98;;;23.50;71.70;;;;;;4961377;29;20024;-80
2022/05/21 12:11:02;;;;;;;2.15;0.88;;;24.00;72.00;;;;;;4942167;29;20027;-81
2022/05/21 12:13:34;;;;;;;2.65;0.60;;;24.30;70.60;;;;;;4949807;28;20434;-82
2022/05/21 12:16:20;;;;;;;4.95;1.13;;;24.10;69.20;;;;;;4949517;29;20687;-81
2022/05/21 12:18:47;;;;;;;2.03;0.65;;;24.00;67.20;;;;;;4943889;28;20051;-82
2022/05/21 12:21:35;;;;;;;2.50;0.95;;;23.80;68.70;;;;;;4946075;29;20031;-81
2022/05/21 12:24:25;;;;;;;5.00;1.00;;;23.40;67.80;;;;;;4955858;28;20059;-80
2022/05/21 12:27:22;;;;;;;3.70;1.10;;;23.30;68.90;;;;;;4978080;28;20024;-83
2022/05/21 12:29:55;;;;;;;2.33;1.05;;;23.80;67.70;;;;;;4957536;29;20495;-80
2022/05/21 12:32:24;;;;;;;3.72;1.02;;;24.00;65.80;;;;;;4956576;28;20043;-80
2022/05/21 12:35:25;;;;;;;6.40;0.70;;;24.00;66.00;;;;;;4955734;28;20058;-81
2022/05/21 12:38:29;;;;;;;6.38;0.70;;;24.20;65.80;;;;;;4938095;29;20035;-81
2022/05/21 12:40:58;;;;;;;2.65;0.82;;;24.40;66.10;;;;;;4903347;29;20121;-82
2022/05/21 12:43:24;;;;;;;2.67;0.70;;;24.20;62.40;;;;;;4939085;29;20440;-82
2022/05/21 12:45:52;;;;;;;1.83;0.65;;;23.80;64.40;;;;;;4938529;29;20028;-80
2022/05/21 12:48:29;;;;;;;2.40;0.80;;;24.20;65.50;;;;;;4955725;29;20030;-82
2022/05/21 12:51:04;;;;;;;3.23;0.60;;;24.10;65.30;;;;;;4939528;29;20399;-84
2022/05/21 12:53:49;;;;;;;5.20;0.77;;;23.90;65.30;;;;;;4956223;29;20034;-81
2022/05/21 12:56:27;;;;;;;5.45;0.82;;;24.10;63.70;;;;;;4954682;28;20023;-80
2022/05/21 12:59:08;;;;;;;2.42;0.90;;;24.30;63.70;;;;;;4954087;29;20190;-81
2022/05/21 13:01:40;;;;;;;2.83;0.77;;;24.10;61.70;;;;;;4954654;28;20134;-82
2022/05/21 13:04:29;;;;;;;3.38;0.60;;;24.10;64.40;;;;;;4937243;29;20483;-80
2022/05/21 13:07:26;;;;;;;5.85;0.80;;;24.50;64.30;;;;;;4954693;28;20102;-81
2022/05/21 13:10:05;;;;;;;2.25;0.80;;;24.10;61.10;;;;;;4954676;28;20043;-80
2022/05/21 13:12:43;;;;;;;6.38;0.93;;;24.30;63.50;;;;;;4954177;28;20114;-82
2022/05/21 13:15:15;;;;;;;4.38;0.80;;;24.40;63.00;;;;;;4937370;29;20360;-81
2022/05/21 13:17:45;;;;;;;2.97;1.02;;;24.20;64.40;;;;;;4954454;29;20031;-83
2022/05/21 13:20:38;;;;;;;6.97;0.98;;;23.50;62.90;;;;;;4936447;29;20490;-82
2022/05/21 13:23:27;;;;;;;6.53;0.80;;;23.60;63.40;;;;;;4954702;29;20498;-82
2022/05/21 13:25:54;;;;;;;1.42;0.73;;;23.50;64.90;;;;;;4954824;28;20003;-82
2022/05/21 13:28:22;;;;;;;1.55;0.65;;;24.00;65.50;;;;;;4954689;28;20103;-81
2022/05/21 13:30:51;;;;;;;8.57;1.00;;;24.60;63.30;;;;;;4937341;29;20027;-82
2022/05/21 13:33:29;;;;;;;3.80;0.73;;;24.60;61.00;;;;;;4936245;29;20031;-84
2022/05/21 13:35:59;;;;;;;2.03;0.70;;;24.70;60.20;;;;;;4937395;29;20139;-81
2022/05/21 13:38:35;;;;;;;3.92;0.80;;;24.60;60.70;;;;;;4940389;29;20551;-83
2022/05/21 13:41:14;;;;;;;2.75;0.68;;;24.80;63.20;;;;;;4954241;28;20024;-82